Terminal Aerodrome Forecast
Issued by NWS Hastings, NE

Home | Current Version | Previous Version | Text Only | Print | Product List | Glossary On
Versions: 1 2 3 4 5 6 7 8 9 10 11 12 13 14 15
000
FTUS45 KGID 210539
TAFEAR
TAF
KEAR 210539Z 2106/2206 VRB05KT P6SM SCT250 WS010/20035KT
     FM211000 VRB04KT 6SM BR SCT200 WS010/23035KT
     FM211200 VRB04KT 5SM BR SCT200
     FM211900 20008KT P6SM SCT200
     FM220400 VRB04KT P6SM BKN080=

USA.gov is the U.S. government's official web portal to all federal, state and local government web resources and services.